sensor_id;sensor_type;location;lat;lon;timestamp;temperature;humidity
1329;DHT22;658;48.820;9.354;2024-03-02T00:01:02;22.50;40.30
1329;DHT22;658;48.820;9.354;2024-03-02T00:05:04;22.50;40.30
1329;DHT22;658;48.820;9.354;2024-03-02T00:09:05;22.50;40.30
1329;DHT22;658;48.820;9.354;2024-03-02T00:13:08;22.40;40.20
1329;DHT22;658;48.820;9.354;2024-03-02T00:17:17;22.40;40.20
1329;DHT22;658;48.820;9.354;2024-03-02T00:21:27;22.40;40.20
1329;DHT22;658;48.820;9.354;2024-03-02T00:29:40;22.40;40.20
1329;DHT22;658;48.820;9.354;2024-03-02T00:33:48;22.40;40.20
1329;DHT22;658;48.820;9.354;2024-03-02T00:37:49;22.40;40.30
1329;DHT22;658;48.820;9.354;2024-03-02T00:41:49;22.40;40.30
1329;DHT22;658;48.820;9.354;2024-03-02T00:45:50;22.40;40.20
1329;DHT22;658;48.820;9.354;2024-03-02T00:49:51;22.40;40.20
1329;DHT22;658;48.820;9.354;2024-03-02T00:53:53;22.30;40.20
1329;DHT22;658;48.820;9.354;2024-03-02T00:57:56;22.30;40.10
1329;DHT22;658;48.820;9.354;2024-03-02T01:01:57;22.40;40.30
1329;DHT22;658;48.820;9.354;2024-03-02T01:05:57;22.40;40.30
1329;DHT22;658;48.820;9.354;2024-03-02T01:09:58;22.40;40.20
1329;DHT22;658;48.820;9.354;2024-03-02T01:13:59;22.40;40.20
1329;DHT22;658;48.820;9.354;2024-03-02T01:17:59;22.40;40.20
1329;DHT22;658;48.820;9.354;2024-03-02T01:22:02;22.40;40.20
1329;DHT22;658;48.820;9.354;2024-03-02T01:26:03;22.40;40.10
1329;DHT22;658;48.820;9.354;2024-03-02T01:30:04;22.40;40.10
1329;DHT22;658;48.820;9.354;2024-03-02T01:34:04;22.40;40.00
1329;DHT22;658;48.820;9.354;2024-03-02T01:38:05;22.50;40.10
1329;DHT22;658;48.820;9.354;2024-03-02T01:42:06;22.50;40.10
1329;DHT22;658;48.820;9.354;2024-03-02T01:46:11;22.50;40.10
1329;DHT22;658;48.820;9.354;2024-03-02T01:50:12;22.50;40.00
1329;DHT22;658;48.820;9.354;2024-03-02T01:54:13;22.50;40.00
1329;DHT22;658;48.820;9.354;2024-03-02T01:58:14;22.50;40.00
1329;DHT22;658;48.820;9.354;2024-03-02T02:02:17;22.60;40.10
1329;DHT22;658;48.820;9.354;2024-03-02T02:06:17;22.60;40.00
1329;DHT22;658;48.820;9.354;2024-03-02T02:10:18;22.60;39.90
1329;DHT22;658;48.820;9.354;2024-03-02T02:14:19;22.60;39.90
1329;DHT22;658;48.820;9.354;2024-03-02T02:18:22;22.60;39.80
1329;DHT22;658;48.820;9.354;2024-03-02T02:22:22;22.60;39.80
1329;DHT22;658;48.820;9.354;2024-03-02T02:26:23;22.60;39.80
1329;DHT22;658;48.820;9.354;2024-03-02T02:30:29;22.60;40.30
1329;DHT22;658;48.820;9.354;2024-03-02T02:34:30;22.70;39.80
1329;DHT22;658;48.820;9.354;2024-03-02T02:38:33;22.70;39.80
1329;DHT22;658;48.820;9.354;2024-03-02T02:42:38;22.70;39.80
1329;DHT22;658;48.820;9.354;2024-03-02T02:46:40;22.70;39.80
1329;DHT22;658;48.820;9.354;2024-03-02T02:50:42;22.70;39.70
1329;DHT22;658;48.820;9.354;2024-03-02T02:54:43;22.70;39.80
1329;DHT22;658;48.820;9.354;2024-03-02T02:58:43;22.70;39.70
1329;DHT22;658;48.820;9.354;2024-03-02T03:02:48;22.70;39.60
1329;DHT22;658;48.820;9.354;2024-03-02T03:06:49;22.70;39.50
1329;DHT22;658;48.820;9.354;2024-03-02T03:10:50;22.70;39.50
1329;DHT22;658;48.820;9.354;2024-03-02T03:14:51;22.70;39.50
1329;DHT22;658;48.820;9.354;2024-03-02T03:18:53;22.70;39.50
1329;DHT22;658;48.820;9.354;2024-03-02T03:22:54;22.70;39.40
1329;DHT22;658;48.820;9.354;2024-03-02T03:26:54;22.70;39.40
1329;DHT22;658;48.820;9.354;2024-03-02T03:30:57;22.70;39.40
1329;DHT22;658;48.820;9.354;2024-03-02T03:35:00;22.70;39.40
1329;DHT22;658;48.820;9.354;2024-03-02T03:39:01;22.70;39.40
1329;DHT22;658;48.820;9.354;2024-03-02T03:43:03;22.70;39.40
1329;DHT22;658;48.820;9.354;2024-03-02T03:47:06;22.70;39.30
1329;DHT22;658;48.820;9.354;2024-03-02T03:51:09;22.70;39.30
1329;DHT22;658;48.820;9.354;2024-03-02T03:55:10;22.70;39.30
1329;DHT22;658;48.820;9.354;2024-03-02T03:59:10;22.70;39.30
1329;DHT22;658;48.820;9.354;2024-03-02T04:03:13;22.70;39.30
1329;DHT22;658;48.820;9.354;2024-03-02T04:07:16;22.70;39.20
1329;DHT22;658;48.820;9.354;2024-03-02T04:11:21;22.70;39.20
1329;DHT22;658;48.820;9.354;2024-03-02T04:15:22;22.70;39.20
1329;DHT22;658;48.820;9.354;2024-03-02T04:19:23;22.70;39.20
1329;DHT22;658;48.820;9.354;2024-03-02T04:23:26;22.70;39.20
1329;DHT22;658;48.820;9.354;2024-03-02T04:27:27;22.70;39.10
1329;DHT22;658;48.820;9.354;2024-03-02T04:31:28;22.70;39.10
1329;DHT22;658;48.820;9.354;2024-03-02T04:35:29;22.70;39.10
1329;DHT22;658;48.820;9.354;2024-03-02T04:39:29;22.60;39.00
1329;DHT22;658;48.820;9.354;2024-03-02T04:43:30;22.60;39.00
1329;DHT22;658;48.820;9.354;2024-03-02T04:47:32;22.70;39.10
1329;DHT22;658;48.820;9.354;2024-03-02T04:51:32;22.60;39.00
1329;DHT22;658;48.820;9.354;2024-03-02T04:55:35;22.60;39.00
1329;DHT22;658;48.820;9.354;2024-03-02T04:59:42;22.60;39.00
1329;DHT22;658;48.820;9.354;2024-03-02T05:03:44;22.60;39.00
1329;DHT22;658;48.820;9.354;2024-03-02T05:07:45;22.60;38.90
1329;DHT22;658;48.820;9.354;2024-03-02T05:11:46;22.60;38.90
1329;DHT22;658;48.820;9.354;2024-03-02T05:15:59;22.60;38.90
1329;DHT22;658;48.820;9.354;2024-03-02T05:20:03;22.60;39.00
1329;DHT22;658;48.820;9.354;2024-03-02T05:24:06;22.60;38.90
1329;DHT22;658;48.820;9.354;2024-03-02T05:28:07;22.60;39.00
1329;DHT22;658;48.820;9.354;2024-03-02T05:32:07;22.60;38.90
1329;DHT22;658;48.820;9.354;2024-03-02T05:36:08;22.50;38.90
1329;DHT22;658;48.820;9.354;2024-03-02T05:40:09;22.60;38.90
1329;DHT22;658;48.820;9.354;2024-03-02T05:44:11;22.60;38.90
1329;DHT22;658;48.820;9.354;2024-03-02T05:48:12;22.50;38.90
1329;DHT22;658;48.820;9.354;2024-03-02T05:52:13;22.50;38.90
1329;DHT22;658;48.820;9.354;2024-03-02T05:56:14;22.50;38.90
1329;DHT22;658;48.820;9.354;2024-03-02T06:00:14;22.60;39.00
1329;DHT22;658;48.820;9.354;2024-03-02T06:04:17;22.50;38.90
1329;DHT22;658;48.820;9.354;2024-03-02T06:08:18;22.50;38.90
1329;DHT22;658;48.820;9.354;2024-03-02T06:12:18;22.50;38.90
1329;DHT22;658;48.820;9.354;2024-03-02T06:16:21;22.50;38.90
1329;DHT22;658;48.820;9.354;2024-03-02T06:20:22;22.60;38.90
1329;DHT22;658;48.820;9.354;2024-03-02T06:24:23;22.60;38.90
1329;DHT22;658;48.820;9.354;2024-03-02T06:28:23;22.60;38.90
1329;DHT22;658;48.820;9.354;2024-03-02T06:32:24;22.60;38.90
1329;DHT22;658;48.820;9.354;2024-03-02T06:36:25;22.60;38.90
1329;DHT22;658;48.820;9.354;2024-03-02T06:40:26;22.60;38.80
1329;DHT22;658;48.820;9.354;2024-03-02T06:44:26;22.60;38.80
1329;DHT22;658;48.820;9.354;2024-03-02T06:48:27;22.60;38.80
1329;DHT22;658;48.820;9.354;2024-03-02T06:52:29;22.70;38.90
1329;DHT22;658;48.820;9.354;2024-03-02T06:56:32;22.70;38.90
1329;DHT22;658;48.820;9.354;2024-03-02T07:00:33;22.70;38.90
1329;DHT22;658;48.820;9.354;2024-03-02T07:04:34;22.70;38.80
1329;DHT22;658;48.820;9.354;2024-03-02T07:08:34;22.70;38.90
1329;DHT22;658;48.820;9.354;2024-03-02T07:12:35;22.70;38.90
1329;DHT22;658;48.820;9.354;2024-03-02T07:16:37;22.70;39.10
1329;DHT22;658;48.820;9.354;2024-03-02T07:25:38;22.80;39.20
1329;DHT22;658;48.820;9.354;2024-03-02T07:29:39;22.80;39.30
1329;DHT22;658;48.820;9.354;2024-03-02T07:33:40;22.90;39.40
1329;DHT22;658;48.820;9.354;2024-03-02T07:37:41;22.90;39.40
1329;DHT22;658;48.820;9.354;2024-03-02T07:41:42;22.90;39.20
1329;DHT22;658;48.820;9.354;2024-03-02T07:45:44;23.00;39.30
1329;DHT22;658;48.820;9.354;2024-03-02T07:49:49;23.00;39.20
1329;DHT22;658;48.820;9.354;2024-03-02T07:53:49;23.00;39.20
1329;DHT22;658;48.820;9.354;2024-03-02T07:57:52;23.00;39.10
1329;DHT22;658;48.820;9.354;2024-03-02T08:01:53;23.10;39.10
1329;DHT22;658;48.820;9.354;2024-03-02T08:05:55;23.10;39.20
1329;DHT22;658;48.820;9.354;2024-03-02T08:09:56;23.20;39.40
1329;DHT22;658;48.820;9.354;2024-03-02T08:13:56;23.20;39.40
1329;DHT22;658;48.820;9.354;2024-03-02T08:17:57;23.20;39.30
1329;DHT22;658;48.820;9.354;2024-03-02T08:21:58;23.30;39.30
1329;DHT22;658;48.820;9.354;2024-03-02T08:26:00;23.30;39.20
1329;DHT22;658;48.820;9.354;2024-03-02T08:30:05;23.20;39.10
1329;DHT22;658;48.820;9.354;2024-03-02T08:34:09;23.20;39.00
1329;DHT22;658;48.820;9.354;2024-03-02T08:38:12;23.20;38.90
1329;DHT22;658;48.820;9.354;2024-03-02T08:42:12;23.30;38.90
1329;DHT22;658;48.820;9.354;2024-03-02T08:46:13;23.30;38.90
1329;DHT22;658;48.820;9.354;2024-03-02T08:50:14;23.30;38.80
1329;DHT22;658;48.820;9.354;2024-03-02T08:54:14;23.20;38.70
1329;DHT22;658;48.820;9.354;2024-03-02T08:58:15;23.30;38.70
1329;DHT22;658;48.820;9.354;2024-03-02T09:02:16;23.30;38.60
1329;DHT22;658;48.820;9.354;2024-03-02T09:06:17;23.30;38.60
1329;DHT22;658;48.820;9.354;2024-03-02T09:10:20;23.40;38.50
1329;DHT22;658;48.820;9.354;2024-03-02T09:14:21;23.40;38.40
1329;DHT22;658;48.820;9.354;2024-03-02T09:18:22;23.50;38.40
1329;DHT22;658;48.820;9.354;2024-03-02T09:22:22;23.50;38.40
1329;DHT22;658;48.820;9.354;2024-03-02T09:26:23;23.50;38.40
1329;DHT22;658;48.820;9.354;2024-03-02T09:30:25;23.50;38.30
1329;DHT22;658;48.820;9.354;2024-03-02T09:34:28;23.60;38.30
1329;DHT22;658;48.820;9.354;2024-03-02T09:38:28;23.60;38.30
1329;DHT22;658;48.820;9.354;2024-03-02T09:42:29;23.60;38.30
1329;DHT22;658;48.820;9.354;2024-03-02T09:46:32;23.70;38.30
1329;DHT22;658;48.820;9.354;2024-03-02T09:50:33;23.80;38.30
1329;DHT22;658;48.820;9.354;2024-03-02T09:54:34;23.80;38.10
1329;DHT22;658;48.820;9.354;2024-03-02T09:58:34;23.90;38.10
1329;DHT22;658;48.820;9.354;2024-03-02T10:02:35;23.90;38.00
1329;DHT22;658;48.820;9.354;2024-03-02T10:06:36;24.00;37.90
1329;DHT22;658;48.820;9.354;2024-03-02T10:10:37;24.10;37.80
1329;DHT22;658;48.820;9.354;2024-03-02T10:14:42;24.10;37.70
1329;DHT22;658;48.820;9.354;2024-03-02T10:18:43;24.20;37.70
1329;DHT22;658;48.820;9.354;2024-03-02T10:22:44;24.30;38.10
1329;DHT22;658;48.820;9.354;2024-03-02T10:26:44;24.30;37.40
1329;DHT22;658;48.820;9.354;2024-03-02T10:30:48;24.40;37.40
1329;DHT22;658;48.820;9.354;2024-03-02T10:34:50;24.50;37.30
1329;DHT22;658;48.820;9.354;2024-03-02T10:38:53;24.50;37.20
1329;DHT22;658;48.820;9.354;2024-03-02T10:42:55;24.70;37.20
1329;DHT22;658;48.820;9.354;2024-03-02T10:46:58;24.70;37.10
1329;DHT22;658;48.820;9.354;2024-03-02T10:51:00;24.80;37.00
1329;DHT22;658;48.820;9.354;2024-03-02T10:55:02;24.90;37.10
1329;DHT22;658;48.820;9.354;2024-03-02T10:59:21;25.00;37.00
1329;DHT22;658;48.820;9.354;2024-03-02T11:03:24;25.00;36.70
1329;DHT22;658;48.820;9.354;2024-03-02T11:07:27;25.10;36.50
1329;DHT22;658;48.820;9.354;2024-03-02T11:11:30;25.30;36.40
1329;DHT22;658;48.820;9.354;2024-03-02T11:15:34;25.40;36.30
1329;DHT22;658;48.820;9.354;2024-03-02T11:19:39;25.50;36.20
1329;DHT22;658;48.820;9.354;2024-03-02T11:23:40;25.50;36.30
1329;DHT22;658;48.820;9.354;2024-03-02T11:31:59;25.70;36.10
1329;DHT22;658;48.820;9.354;2024-03-02T11:36:03;25.80;36.20
1329;DHT22;658;48.820;9.354;2024-03-02T11:40:09;26.00;35.90
1329;DHT22;658;48.820;9.354;2024-03-02T11:44:10;26.20;36.00
1329;DHT22;658;48.820;9.354;2024-03-02T11:48:14;26.30;35.60
1329;DHT22;658;48.820;9.354;2024-03-02T11:52:16;26.50;35.50
1329;DHT22;658;48.820;9.354;2024-03-02T11:56:18;26.80;35.00
1329;DHT22;658;48.820;9.354;2024-03-02T12:00:20;26.90;34.70
1329;DHT22;658;48.820;9.354;2024-03-02T12:04:21;27.10;34.40
1329;DHT22;658;48.820;9.354;2024-03-02T12:08:22;27.30;34.10
1329;DHT22;658;48.820;9.354;2024-03-02T12:12:23;27.60;33.80
1329;DHT22;658;48.820;9.354;2024-03-02T12:16:27;27.80;33.50
1329;DHT22;658;48.820;9.354;2024-03-02T12:20:30;28.00;33.00
1329;DHT22;658;48.820;9.354;2024-03-02T12:24:31;28.10;32.70
1329;DHT22;658;48.820;9.354;2024-03-02T12:28:33;28.10;32.50
1329;DHT22;658;48.820;9.354;2024-03-02T12:32:34;28.20;32.50
1329;DHT22;658;48.820;9.354;2024-03-02T12:36:38;28.30;32.90
1329;DHT22;658;48.820;9.354;2024-03-02T12:40:39;28.30;32.10
1329;DHT22;658;48.820;9.354;2024-03-02T12:44:40;28.30;32.00
1329;DHT22;658;48.820;9.354;2024-03-02T12:48:40;28.30;32.00
1329;DHT22;658;48.820;9.354;2024-03-02T12:52:41;28.40;31.90
1329;DHT22;658;48.820;9.354;2024-03-02T12:56:44;28.40;32.00
1329;DHT22;658;48.820;9.354;2024-03-02T13:00:46;28.60;31.80
1329;DHT22;658;48.820;9.354;2024-03-02T13:04:53;28.80;31.50
1329;DHT22;658;48.820;9.354;2024-03-02T13:08:57;29.00;31.20
1329;DHT22;658;48.820;9.354;2024-03-02T13:12:57;29.10;30.80
1329;DHT22;658;48.820;9.354;2024-03-02T13:16:58;29.30;30.60
1329;DHT22;658;48.820;9.354;2024-03-02T13:21:00;29.50;30.50
1329;DHT22;658;48.820;9.354;2024-03-02T13:25:01;29.60;30.40
1329;DHT22;658;48.820;9.354;2024-03-02T13:29:04;29.70;30.20
1329;DHT22;658;48.820;9.354;2024-03-02T13:33:04;30.00;30.10
1329;DHT22;658;48.820;9.354;2024-03-02T13:37:05;30.00;29.90
1329;DHT22;658;48.820;9.354;2024-03-02T13:41:06;30.20;29.90
1329;DHT22;658;48.820;9.354;2024-03-02T13:45:07;30.30;29.90
1329;DHT22;658;48.820;9.354;2024-03-02T13:49:09;30.30;29.70
1329;DHT22;658;48.820;9.354;2024-03-02T13:53:10;30.40;29.70
1329;DHT22;658;48.820;9.354;2024-03-02T13:57:11;30.50;29.60
1329;DHT22;658;48.820;9.354;2024-03-02T14:01:12;30.60;29.60
1329;DHT22;658;48.820;9.354;2024-03-02T14:05:12;30.70;29.50
1329;DHT22;658;48.820;9.354;2024-03-02T14:09:15;30.80;29.40
1329;DHT22;658;48.820;9.354;2024-03-02T14:13:16;30.90;29.30
1329;DHT22;658;48.820;9.354;2024-03-02T14:17:19;31.00;29.10
1329;DHT22;658;48.820;9.354;2024-03-02T14:21:19;30.90;29.00
1329;DHT22;658;48.820;9.354;2024-03-02T14:25:20;31.00;29.00
1329;DHT22;658;48.820;9.354;2024-03-02T14:29:21;30.90;28.90
1329;DHT22;658;48.820;9.354;2024-03-02T14:33:24;30.80;29.00
1329;DHT22;658;48.820;9.354;2024-03-02T14:37:27;30.70;29.10
1329;DHT22;658;48.820;9.354;2024-03-02T14:41:27;30.60;29.10
1329;DHT22;658;48.820;9.354;2024-03-02T14:45:28;30.50;29.30
1329;DHT22;658;48.820;9.354;2024-03-02T14:49:28;30.40;29.40
1329;DHT22;658;48.820;9.354;2024-03-02T14:53:29;30.20;29.50
1329;DHT22;658;48.820;9.354;2024-03-02T14:57:30;30.10;29.60
1329;DHT22;658;48.820;9.354;2024-03-02T15:01:32;29.90;29.70
1329;DHT22;658;48.820;9.354;2024-03-02T15:05:33;29.80;29.90
1329;DHT22;658;48.820;9.354;2024-03-02T15:09:33;29.60;30.00
1329;DHT22;658;48.820;9.354;2024-03-02T15:13:36;29.50;30.10
1329;DHT22;658;48.820;9.354;2024-03-02T15:17:37;29.30;30.20
1329;DHT22;658;48.820;9.354;2024-03-02T15:21:37;29.20;30.50
1329;DHT22;658;48.820;9.354;2024-03-02T15:25:38;29.10;30.70
1329;DHT22;658;48.820;9.354;2024-03-02T15:29:39;28.90;31.00
1329;DHT22;658;48.820;9.354;2024-03-02T15:33:40;28.80;31.10
1329;DHT22;658;48.820;9.354;2024-03-02T15:37:40;28.60;31.20
1329;DHT22;658;48.820;9.354;2024-03-02T15:41:43;28.50;31.40
1329;DHT22;658;48.820;9.354;2024-03-02T15:45:43;28.40;31.70
1329;DHT22;658;48.820;9.354;2024-03-02T15:49:44;28.20;31.70
1329;DHT22;658;48.820;9.354;2024-03-02T15:53:47;28.10;32.50
1329;DHT22;658;48.820;9.354;2024-03-02T15:57:47;28.00;32.50
1329;DHT22;658;48.820;9.354;2024-03-02T16:01:48;27.90;32.70
1329;DHT22;658;48.820;9.354;2024-03-02T16:05:49;27.80;33.00
1329;DHT22;658;48.820;9.354;2024-03-02T16:09:49;27.70;33.10
1329;DHT22;658;48.820;9.354;2024-03-02T16:13:55;27.60;33.10
1329;DHT22;658;48.820;9.354;2024-03-02T16:17:56;27.50;33.50
1329;DHT22;658;48.820;9.354;2024-03-02T16:21:58;27.50;33.60
1329;DHT22;658;48.820;9.354;2024-03-02T16:25:59;27.40;33.70
1329;DHT22;658;48.820;9.354;2024-03-02T16:29:59;27.30;34.10
1329;DHT22;658;48.820;9.354;2024-03-02T16:34:00;27.30;34.20
1329;DHT22;658;48.820;9.354;2024-03-02T16:38:01;27.20;34.20
1329;DHT22;658;48.820;9.354;2024-03-02T16:42:01;27.10;34.40
1329;DHT22;658;48.820;9.354;2024-03-02T16:46:04;27.10;34.40
1329;DHT22;658;48.820;9.354;2024-03-02T16:50:06;27.00;34.50
1329;DHT22;658;48.820;9.354;2024-03-02T16:54:08;27.00;34.70
1329;DHT22;658;48.820;9.354;2024-03-02T16:58:09;26.90;34.60
1329;DHT22;658;48.820;9.354;2024-03-02T17:02:10;26.80;35.50
1329;DHT22;658;48.820;9.354;2024-03-02T17:06:10;26.80;35.10
1329;DHT22;658;48.820;9.354;2024-03-02T17:10:11;26.70;35.30
1329;DHT22;658;48.820;9.354;2024-03-02T17:14:11;26.70;35.30
1329;DHT22;658;48.820;9.354;2024-03-02T17:18:12;26.60;35.50
1329;DHT22;658;48.820;9.354;2024-03-02T17:22:13;26.60;35.60
1329;DHT22;658;48.820;9.354;2024-03-02T17:26:13;26.50;35.90
1329;DHT22;658;48.820;9.354;2024-03-02T17:30:14;26.50;36.40
1329;DHT22;658;48.820;9.354;2024-03-02T17:34:15;26.50;36.70
1329;DHT22;658;48.820;9.354;2024-03-02T17:38:16;26.40;36.80
1329;DHT22;658;48.820;9.354;2024-03-02T17:42:17;26.40;36.70
1329;DHT22;658;48.820;9.354;2024-03-02T17:46:17;26.40;36.80
1329;DHT22;658;48.820;9.354;2024-03-02T17:50:18;26.30;37.20
1329;DHT22;658;48.820;9.354;2024-03-02T17:54:18;26.20;37.40
1329;DHT22;658;48.820;9.354;2024-03-02T17:58:19;26.20;37.50
1329;DHT22;658;48.820;9.354;2024-03-02T18:02:20;26.10;37.60
1329;DHT22;658;48.820;9.354;2024-03-02T18:06:20;26.10;37.50
1329;DHT22;658;48.820;9.354;2024-03-02T18:10:21;26.00;37.50
1329;DHT22;658;48.820;9.354;2024-03-02T18:14:21;26.00;37.50
1329;DHT22;658;48.820;9.354;2024-03-02T18:18:22;25.90;37.50
1329;DHT22;658;48.820;9.354;2024-03-02T18:22:25;25.90;37.60
1329;DHT22;658;48.820;9.354;2024-03-02T18:26:26;25.80;37.50
1329;DHT22;658;48.820;9.354;2024-03-02T18:30:29;25.80;37.60
1329;DHT22;658;48.820;9.354;2024-03-02T18:34:31;25.70;37.60
1329;DHT22;658;48.820;9.354;2024-03-02T18:38:32;25.70;37.60
1329;DHT22;658;48.820;9.354;2024-03-02T18:42:33;25.60;37.50
1329;DHT22;658;48.820;9.354;2024-03-02T18:46:34;25.60;37.50
1329;DHT22;658;48.820;9.354;2024-03-02T18:50:35;25.60;37.60
1329;DHT22;658;48.820;9.354;2024-03-02T18:54:35;25.50;37.60
1329;DHT22;658;48.820;9.354;2024-03-02T18:58:36;25.50;37.60
1329;DHT22;658;48.820;9.354;2024-03-02T19:02:36;25.50;37.60
1329;DHT22;658;48.820;9.354;2024-03-02T19:06:38;25.40;37.70
1329;DHT22;658;48.820;9.354;2024-03-02T19:10:41;25.40;37.70
1329;DHT22;658;48.820;9.354;2024-03-02T19:14:44;25.30;37.70
1329;DHT22;658;48.820;9.354;2024-03-02T19:18:46;25.30;37.70
1329;DHT22;658;48.820;9.354;2024-03-02T19:22:46;25.30;37.70
1329;DHT22;658;48.820;9.354;2024-03-02T19:26:49;25.20;37.70
1329;DHT22;658;48.820;9.354;2024-03-02T19:30:50;25.20;37.70
1329;DHT22;658;48.820;9.354;2024-03-02T19:34:50;25.20;37.90
1329;DHT22;658;48.820;9.354;2024-03-02T19:38:51;25.10;38.30
1329;DHT22;658;48.820;9.354;2024-03-02T19:42:52;25.20;38.20
1329;DHT22;658;48.820;9.354;2024-03-02T19:46:53;25.20;38.20
1329;DHT22;658;48.820;9.354;2024-03-02T19:50:56;25.20;38.20
1329;DHT22;658;48.820;9.354;2024-03-02T19:54:56;25.10;38.20
1329;DHT22;658;48.820;9.354;2024-03-02T19:58:57;25.10;38.20
1329;DHT22;658;48.820;9.354;2024-03-02T20:02:59;25.00;38.30
1329;DHT22;658;48.820;9.354;2024-03-02T20:07:00;24.90;38.30
1329;DHT22;658;48.820;9.354;2024-03-02T20:11:02;24.90;38.30
1329;DHT22;658;48.820;9.354;2024-03-02T20:15:04;24.90;38.50
1329;DHT22;658;48.820;9.354;2024-03-02T20:19:05;24.90;38.40
1329;DHT22;658;48.820;9.354;2024-03-02T20:23:05;24.90;38.40
1329;DHT22;658;48.820;9.354;2024-03-02T20:27:06;24.80;38.30
1329;DHT22;658;48.820;9.354;2024-03-02T20:31:07;24.80;38.40
1329;DHT22;658;48.820;9.354;2024-03-02T20:35:09;24.80;38.30
1329;DHT22;658;48.820;9.354;2024-03-02T20:39:11;24.80;38.40
1329;DHT22;658;48.820;9.354;2024-03-02T20:43:12;24.80;38.60
1329;DHT22;658;48.820;9.354;2024-03-02T20:47:13;24.80;38.50
1329;DHT22;658;48.820;9.354;2024-03-02T20:51:14;24.80;38.40
1329;DHT22;658;48.820;9.354;2024-03-02T20:55:15;24.80;38.30
1329;DHT22;658;48.820;9.354;2024-03-02T20:59:17;24.80;38.30
1329;DHT22;658;48.820;9.354;2024-03-02T21:03:18;24.70;38.40
1329;DHT22;658;48.820;9.354;2024-03-02T21:07:19;24.70;38.40
1329;DHT22;658;48.820;9.354;2024-03-02T21:11:21;24.70;38.40
1329;DHT22;658;48.820;9.354;2024-03-02T21:15:22;24.70;38.40
1329;DHT22;658;48.820;9.354;2024-03-02T21:19:23;24.60;38.30
1329;DHT22;658;48.820;9.354;2024-03-02T21:23:23;24.60;38.60
1329;DHT22;658;48.820;9.354;2024-03-02T21:27:24;24.60;38.60
1329;DHT22;658;48.820;9.354;2024-03-02T21:31:24;24.70;38.70
1329;DHT22;658;48.820;9.354;2024-03-02T21:35:25;24.70;38.70
1329;DHT22;658;48.820;9.354;2024-03-02T21:39:27;24.70;38.80
1329;DHT22;658;48.820;9.354;2024-03-02T21:43:30;24.70;38.80
1329;DHT22;658;48.820;9.354;2024-03-02T21:47:32;24.80;38.80
1329;DHT22;658;48.820;9.354;2024-03-02T21:51:32;24.80;38.80
1329;DHT22;658;48.820;9.354;2024-03-02T21:55:33;24.80;38.80
1329;DHT22;658;48.820;9.354;2024-03-02T21:59:33;24.80;38.70
1329;DHT22;658;48.820;9.354;2024-03-02T22:03:37;24.80;38.90
1329;DHT22;658;48.820;9.354;2024-03-02T22:07:38;24.80;38.90
1329;DHT22;658;48.820;9.354;2024-03-02T22:11:39;24.80;39.00
1329;DHT22;658;48.820;9.354;2024-03-02T22:15:39;24.80;38.90
1329;DHT22;658;48.820;9.354;2024-03-02T22:19:40;24.80;39.20
1329;DHT22;658;48.820;9.354;2024-03-02T22:23:40;24.80;39.20
1329;DHT22;658;48.820;9.354;2024-03-02T22:27:41;24.80;39.10
1329;DHT22;658;48.820;9.354;2024-03-02T22:31:42;24.80;39.20
1329;DHT22;658;48.820;9.354;2024-03-02T22:35:42;24.80;39.20
1329;DHT22;658;48.820;9.354;2024-03-02T22:39:43;24.80;39.20
1329;DHT22;658;48.820;9.354;2024-03-02T22:43:43;24.80;39.20
1329;DHT22;658;48.820;9.354;2024-03-02T22:47:44;24.80;39.20
1329;DHT22;658;48.820;9.354;2024-03-02T22:51:45;24.80;39.10
1329;DHT22;658;48.820;9.354;2024-03-02T22:55:48;24.80;39.10
1329;DHT22;658;48.820;9.354;2024-03-02T22:59:51;24.80;39.20
1329;DHT22;658;48.820;9.354;2024-03-02T23:03:52;24.80;39.10
1329;DHT22;658;48.820;9.354;2024-03-02T23:12:49;24.70;38.90
1329;DHT22;658;48.820;9.354;2024-03-02T23:16:52;24.70;38.80
1329;DHT22;658;48.820;9.354;2024-03-02T23:20:53;24.70;38.80
1329;DHT22;658;48.820;9.354;2024-03-02T23:24:53;24.60;38.70
1329;DHT22;658;48.820;9.354;2024-03-02T23:28:54;24.60;38.70
1329;DHT22;658;48.820;9.354;2024-03-02T23:32:55;24.60;38.70
1329;DHT22;658;48.820;9.354;2024-03-02T23:36:56;24.50;38.60
1329;DHT22;658;48.820;9.354;2024-03-02T23:40:56;24.50;38.60
1329;DHT22;658;48.820;9.354;2024-03-02T23:45:10;24.50;38.60
1329;DHT22;658;48.820;9.354;2024-03-02T23:49:10;24.50;38.60
1329;DHT22;658;48.820;9.354;2024-03-02T23:53:11;24.40;38.60
1329;DHT22;658;48.820;9.354;2024-03-02T23:57:14;24.40;38.60
